createdAt,value
2023-03-15T00:02:13.633Z,5.95
2023-03-15T00:04:41.812Z,4.38
2023-03-15T00:07:11.074Z,5.18
2023-03-15T00:09:38.857Z,4.38
2023-03-15T00:12:07.284Z,5.43
2023-03-15T00:14:37.866Z,6.22
2023-03-15T00:17:05.650Z,6.10
2023-03-15T00:19:33.423Z,7.65
2023-03-15T00:22:13.300Z,6.93
2023-03-15T00:24:41.106Z,4.88
2023-03-15T00:27:09.408Z,5.32
2023-03-15T00:29:37.538Z,6.22
2023-03-15T00:32:05.824Z,5.55
2023-03-15T00:34:34.015Z,5.40
2023-03-15T00:37:02.179Z,6.05
2023-03-15T00:39:31.394Z,5.57
2023-03-15T00:41:59.136Z,4.60
2023-03-15T00:44:28.048Z,5.68
2023-03-15T00:46:55.995Z,5.28
2023-03-15T00:49:23.830Z,4.97
2023-03-15T00:51:51.603Z,6.63
2023-03-15T00:54:19.476Z,5.85
2023-03-15T00:56:49.630Z,8.80
2023-03-15T00:59:17.487Z,6.47
2023-03-15T01:01:45.446Z,5.50
2023-03-15T01:04:13.338Z,5.70
2023-03-15T01:06:42.332Z,6.50
2023-03-15T01:09:10.703Z,5.68
2023-03-15T01:11:39.657Z,7.65
2023-03-15T01:14:10.540Z,5.38
2023-03-15T01:16:38.605Z,5.85
2023-03-15T01:19:06.604Z,5.65
2023-03-15T01:21:34.505Z,6.63
2023-03-15T01:24:02.388Z,5.50
2023-03-15T01:26:30.203Z,5.38
2023-03-15T01:28:58.873Z,5.53
2023-03-15T01:31:30.279Z,5.80
2023-03-15T01:33:59.706Z,6.63
2023-03-15T01:36:30.152Z,5.53
2023-03-15T01:38:58.244Z,7.75
2023-03-15T01:41:31.611Z,5.72
2023-03-15T01:43:59.459Z,6.65
2023-03-15T01:46:34.180Z,6.40
2023-03-15T01:49:18.755Z,5.97
2023-03-15T01:51:51.894Z,7.32
2023-03-15T01:54:24.073Z,6.47
2023-03-15T01:56:55.294Z,6.60
2023-03-15T01:59:28.427Z,5.60
2023-03-15T02:01:58.054Z,6.60
2023-03-15T02:04:29.663Z,8.35
2023-03-15T02:07:01.345Z,6.40
2023-03-15T02:09:41.684Z,7.53
2023-03-15T02:12:10.892Z,5.80
2023-03-15T02:14:39.360Z,9.10
2023-03-15T02:17:10.507Z,6.18
2023-03-15T02:19:49.599Z,5.00
2023-03-15T02:22:28.500Z,7.00
2023-03-15T02:25:01.135Z,5.18
2023-03-15T02:27:34.467Z,4.03
2023-03-15T02:30:03.950Z,5.10
2023-03-15T02:32:32.621Z,3.58
2023-03-15T02:35:00.699Z,4.35
2023-03-15T02:37:28.476Z,3.40
2023-03-15T02:39:56.434Z,3.22
2023-03-15T02:42:25.007Z,4.38
2023-03-15T02:44:55.281Z,4.95
2023-03-15T02:47:27.721Z,3.63
2023-03-15T02:49:55.503Z,2.97
2023-03-15T02:52:24.456Z,3.60
2023-03-15T02:54:52.342Z,3.35
2023-03-15T02:57:20.697Z,3.50
2023-03-15T02:59:50.751Z,4.13
2023-03-15T03:02:20.371Z,4.30
2023-03-15T03:04:48.777Z,3.40
2023-03-15T03:07:19.930Z,3.80
2023-03-15T03:09:51.757Z,4.18
2023-03-15T03:12:21.567Z,3.20
2023-03-15T03:14:49.513Z,3.53
2023-03-15T03:17:21.400Z,4.20
2023-03-15T03:19:49.644Z,4.20
2023-03-15T03:22:24.610Z,4.60
2023-03-15T03:24:53.017Z,3.47
2023-03-15T03:27:21.423Z,4.55
2023-03-15T03:29:50.377Z,4.25
2023-03-15T03:32:18.353Z,4.22
2023-03-15T03:34:48.408Z,3.72
2023-03-15T03:37:18.801Z,3.30
2023-03-15T03:39:58.227Z,3.20
2023-03-15T03:42:26.398Z,3.38
2023-03-15T03:44:54.507Z,3.05
2023-03-15T03:47:25.073Z,3.45
2023-03-15T03:49:54.372Z,3.95
2023-03-15T03:52:22.780Z,3.72
2023-03-15T03:54:52.780Z,3.35
2023-03-15T03:57:21.224Z,2.67
2023-03-15T03:59:49.769Z,4.05
2023-03-15T04:02:17.621Z,3.33
2023-03-15T04:04:54.224Z,3.70
2023-03-15T04:07:22.582Z,4.82
2023-03-15T04:09:50.885Z,4.28
2023-03-15T04:12:19.467Z,3.90
2023-03-15T04:14:48.017Z,4.15
2023-03-15T04:17:17.107Z,4.75
2023-03-15T04:19:46.933Z,5.10
2023-03-15T04:22:18.096Z,4.07
2023-03-15T04:25:26.696Z,4.53
2023-03-15T04:28:05.406Z,3.95
2023-03-15T04:30:45.398Z,4.68
2023-03-15T04:33:29.194Z,4.20
2023-03-15T04:36:23.700Z,4.00
2023-03-15T04:39:12.540Z,3.75
2023-03-15T04:41:56.989Z,5.05
2023-03-15T04:44:50.916Z,4.80
2023-03-15T04:47:38.979Z,4.05
2023-03-15T04:50:25.976Z,4.80
2023-03-15T04:53:00.798Z,4.60
2023-03-15T04:55:48.239Z,5.18
2023-03-15T04:58:41.782Z,4.72
2023-03-15T05:04:06.189Z,4.65
2023-03-15T05:06:52.665Z,4.32
2023-03-15T05:09:39.745Z,4.18
2023-03-15T05:12:29.683Z,3.83
2023-03-15T05:15:15.718Z,4.18
2023-03-15T05:18:06.124Z,4.20
2023-03-15T05:21:06.041Z,4.07
2023-03-15T05:24:01.161Z,4.43
2023-03-15T05:26:37.509Z,4.47
2023-03-15T05:29:25.557Z,4.88
2023-03-15T05:31:56.273Z,5.18
2023-03-15T05:34:42.969Z,4.75
2023-03-15T05:37:32.302Z,5.28
2023-03-15T05:40:22.848Z,4.80
2023-03-15T05:43:02.967Z,4.63
2023-03-15T05:45:50.777Z,4.70
2023-03-15T05:48:37.237Z,5.50
2023-03-15T05:51:33.989Z,5.60
2023-03-15T05:54:18.389Z,5.38
2023-03-15T05:56:46.195Z,5.95
2023-03-15T05:59:33.142Z,6.43
2023-03-15T06:02:16.518Z,4.85
2023-03-15T06:05:00.093Z,5.55
2023-03-15T06:07:28.694Z,5.90
2023-03-15T06:09:56.474Z,5.60
2023-03-15T06:12:24.321Z,5.20
2023-03-15T06:14:52.174Z,6.00
2023-03-15T06:17:21.552Z,5.47
2023-03-15T06:19:49.776Z,5.60
2023-03-15T06:22:20.474Z,5.78
2023-03-15T06:24:54.603Z,6.88
2023-03-15T06:27:24.284Z,6.78
2023-03-15T06:29:54.126Z,5.68
2023-03-15T06:32:25.119Z,6.07
2023-03-15T06:34:53.307Z,5.93
2023-03-15T06:37:34.281Z,5.75
2023-03-15T06:40:04.197Z,5.53
2023-03-15T06:42:32.011Z,5.30
2023-03-15T06:44:59.953Z,8.38
2023-03-15T06:47:29.604Z,6.32
2023-03-15T06:49:57.759Z,5.72
2023-03-15T06:52:25.526Z,6.40
2023-03-15T06:54:53.531Z,5.78
2023-03-15T06:57:21.355Z,6.70
2023-03-15T06:59:49.295Z,6.20
2023-03-15T07:02:18.869Z,5.43
2023-03-15T07:04:48.834Z,6.30
2023-03-15T07:07:17.001Z,6.38
2023-03-15T07:09:45.121Z,5.93
2023-03-15T07:12:13.185Z,6.72
2023-03-15T07:14:41.112Z,7.15
2023-03-15T07:17:10.131Z,6.53
2023-03-15T07:19:46.819Z,7.43
2023-03-15T07:22:23.663Z,7.45
2023-03-15T07:24:52.722Z,6.47
2023-03-15T07:27:20.883Z,7.60
2023-03-15T07:29:48.791Z,7.32
2023-03-15T07:32:16.836Z,7.07
2023-03-15T07:34:44.893Z,6.15
2023-03-15T07:37:12.940Z,8.10
2023-03-15T07:39:42.333Z,6.90
2023-03-15T07:42:10.935Z,7.47
2023-03-15T07:44:42.040Z,8.30
2023-03-15T07:47:10.359Z,7.47
2023-03-15T07:49:38.164Z,6.18
2023-03-15T07:52:06.307Z,8.38
2023-03-15T07:54:35.301Z,6.50
2023-03-15T07:57:05.452Z,6.65
2023-03-15T07:59:33.660Z,6.78
2023-03-15T08:02:02.957Z,7.97
2023-03-15T08:04:31.229Z,6.45
2023-03-15T08:06:59.096Z,6.00
2023-03-15T08:09:26.863Z,5.63
2023-03-15T08:11:54.682Z,6.00
2023-03-15T08:14:24.682Z,6.47
2023-03-15T08:16:52.887Z,6.68
2023-03-15T08:19:22.119Z,8.20
2023-03-15T08:21:49.978Z,6.00
2023-03-15T08:24:17.852Z,6.97
2023-03-15T08:26:45.691Z,6.38
2023-03-15T08:29:13.611Z,6.50
2023-03-15T08:31:44.020Z,5.20
2023-03-15T08:34:12.082Z,5.13
2023-03-15T08:36:39.993Z,5.70
2023-03-15T08:39:08.355Z,6.40
2023-03-15T08:41:36.305Z,5.57
2023-03-15T08:44:05.109Z,4.95
2023-03-15T08:46:33.322Z,5.57
2023-03-15T08:49:03.273Z,7.60
2023-03-15T08:51:31.362Z,6.03
2023-03-15T08:53:59.198Z,5.63
2023-03-15T08:56:27.509Z,6.03
2023-03-15T08:58:55.632Z,6.20
2023-03-15T09:01:23.358Z,5.10
2023-03-15T09:03:51.997Z,5.20
2023-03-15T09:06:23.164Z,7.05
2023-03-15T09:08:50.964Z,6.68
2023-03-15T09:11:18.732Z,6.45
2023-03-15T09:13:46.589Z,5.93
2023-03-15T09:16:14.588Z,5.38
2023-03-15T09:18:44.023Z,5.93
2023-03-15T09:21:12.121Z,6.65
2023-03-15T09:23:41.294Z,5.85
2023-03-15T09:26:09.067Z,7.40
2023-03-15T09:28:36.894Z,5.40
2023-03-15T09:31:07.440Z,5.55
2023-03-15T09:33:35.516Z,5.65
2023-03-15T09:36:03.506Z,5.90
2023-03-15T09:38:31.426Z,5.25
2023-03-15T09:41:01.700Z,5.53
2023-03-15T09:43:58.941Z,6.47
2023-03-15T09:46:33.346Z,5.40
2023-03-15T09:49:10.324Z,5.60
2023-03-15T09:51:44.013Z,4.88
2023-03-15T09:54:19.107Z,5.82
2023-03-15T09:56:54.748Z,4.88
2023-03-15T09:59:27.742Z,7.55
2023-03-15T10:04:29.907Z,4.85
2023-03-15T10:07:00.302Z,5.25
2023-03-15T10:09:33.115Z,4.72
2023-03-15T10:12:06.049Z,5.68
2023-03-15T10:17:12.465Z,3.55
2023-03-15T10:19:49.781Z,4.28
2023-03-15T10:22:26.870Z,6.25
2023-03-15T10:25:00.823Z,6.43
2023-03-15T10:27:35.873Z,4.35
2023-03-15T10:30:16.237Z,4.90
2023-03-15T10:32:46.593Z,4.03
2023-03-15T10:35:16.461Z,3.72
2023-03-15T10:37:45.021Z,5.00
2023-03-15T10:40:16.184Z,5.10
2023-03-15T10:42:46.966Z,4.82
2023-03-15T10:45:21.944Z,4.65
2023-03-15T10:47:59.691Z,3.92
2023-03-15T10:50:31.103Z,4.88
2023-03-15T10:53:00.446Z,4.10
2023-03-15T10:55:33.904Z,4.35
2023-03-15T10:58:20.722Z,4.03
2023-03-15T11:00:52.553Z,4.55
2023-03-15T11:03:22.421Z,3.55
2023-03-15T11:05:52.598Z,4.43
2023-03-15T11:08:22.600Z,5.65
2023-03-15T11:10:57.647Z,4.28
2023-03-15T11:13:29.178Z,3.85
2023-03-15T11:16:05.082Z,4.70
2023-03-15T11:18:38.796Z,4.43
2023-03-15T11:21:11.299Z,4.47
2023-03-15T11:23:42.643Z,6.07
2023-03-15T11:26:29.546Z,4.78
2023-03-15T11:29:02.538Z,4.72
2023-03-15T11:31:32.220Z,4.90
2023-03-15T11:34:05.833Z,3.00
2023-03-15T11:36:40.750Z,3.38
2023-03-15T11:39:14.253Z,3.78
2023-03-15T11:41:48.563Z,4.60
2023-03-15T11:44:28.134Z,4.35
2023-03-15T11:47:00.192Z,4.63
2023-03-15T11:49:37.671Z,5.47
2023-03-15T11:52:06.435Z,3.70
2023-03-15T11:54:34.296Z,3.30
2023-03-15T11:57:06.178Z,3.13
2023-03-15T11:59:37.826Z,3.17
2023-03-15T12:02:37.553Z,3.25
2023-03-15T12:05:17.722Z,4.70
2023-03-15T12:08:00.752Z,3.90
2023-03-15T12:10:35.563Z,2.90
2023-03-15T12:13:21.797Z,2.88
2023-03-15T12:15:51.973Z,3.00
2023-03-15T12:18:29.100Z,3.15
2023-03-15T12:21:22.436Z,3.15
2023-03-15T12:24:03.903Z,5.32
2023-03-15T12:26:43.545Z,4.05
2023-03-15T12:29:22.382Z,3.67
2023-03-15T12:31:56.019Z,3.15
2023-03-15T12:34:28.285Z,2.53
2023-03-15T12:37:00.971Z,3.33
2023-03-15T12:39:41.920Z,2.83
2023-03-15T12:42:15.439Z,3.72
2023-03-15T12:44:44.296Z,2.47
2023-03-15T12:47:14.056Z,2.63
2023-03-15T12:49:43.970Z,2.92
2023-03-15T12:52:35.596Z,3.95
2023-03-15T12:55:12.902Z,2.45
2023-03-15T12:57:51.384Z,3.35
2023-03-15T13:00:23.206Z,3.90
2023-03-15T13:03:01.920Z,4.90
2023-03-15T13:05:35.352Z,4.03
2023-03-15T13:08:22.518Z,2.92
2023-03-15T13:11:16.608Z,3.55
2023-03-15T13:13:58.149Z,3.55
2023-03-15T13:16:38.064Z,3.15
2023-03-15T13:19:18.679Z,2.90
2023-03-15T13:22:06.431Z,3.55
2023-03-15T13:24:44.271Z,3.60
2023-03-15T13:27:23.203Z,3.10
2023-03-15T13:29:51.728Z,3.25
2023-03-15T13:32:23.829Z,2.67
2023-03-15T13:34:53.338Z,2.65
2023-03-15T13:37:25.630Z,3.35
2023-03-15T13:39:56.669Z,2.85
2023-03-15T13:42:26.248Z,4.20
2023-03-15T13:45:18.375Z,2.33
2023-03-15T13:47:47.889Z,2.97
2023-03-15T13:50:20.467Z,2.20
2023-03-15T13:52:49.759Z,3.47
2023-03-15T13:55:22.337Z,3.05
2023-03-15T13:57:55.937Z,2.45
2023-03-15T14:00:25.158Z,3.15
2023-03-15T14:02:57.012Z,3.53
2023-03-15T14:05:29.274Z,2.50
2023-03-15T14:08:02.683Z,2.10
2023-03-15T14:10:32.964Z,2.67
2023-03-15T14:13:17.859Z,3.72
2023-03-15T14:15:47.946Z,4.22
2023-03-15T14:18:20.555Z,5.30
2023-03-15T14:20:59.988Z,2.75
2023-03-15T14:23:29.882Z,2.85
2023-03-15T14:26:06.873Z,2.83
2023-03-15T14:28:35.347Z,3.28
2023-03-15T14:31:04.189Z,2.17
2023-03-15T14:33:34.254Z,3.20
2023-03-15T14:36:07.597Z,3.53
2023-03-15T14:38:38.584Z,3.85
2023-03-15T14:41:20.983Z,3.88
2023-03-15T14:43:49.172Z,2.60
2023-03-15T14:46:17.160Z,2.75
2023-03-15T14:48:45.493Z,2.20
2023-03-15T14:51:18.630Z,3.88
2023-03-15T14:53:48.063Z,3.08
2023-03-15T14:56:17.163Z,2.42
2023-03-15T14:58:46.737Z,2.78
2023-03-15T15:01:17.636Z,3.88
2023-03-15T15:03:49.337Z,5.75
2023-03-15T15:06:18.789Z,3.53
2023-03-15T15:08:48.411Z,3.33
2023-03-15T15:11:17.241Z,4.13
2023-03-15T15:13:45.443Z,3.85
2023-03-15T15:16:13.451Z,2.60
2023-03-15T15:18:41.648Z,4.55
2023-03-15T15:21:15.291Z,4.10
2023-03-15T15:23:57.954Z,2.85
2023-03-15T15:26:28.983Z,3.05
2023-03-15T15:28:57.608Z,2.67
2023-03-15T15:31:28.242Z,3.72
2023-03-15T15:33:57.491Z,2.22
2023-03-15T15:36:27.759Z,3.17
2023-03-15T15:38:57.274Z,2.17
2023-03-15T15:41:27.050Z,3.55
2023-03-15T15:43:55.280Z,3.00
2023-03-15T15:46:23.922Z,3.40
2023-03-15T15:48:52.204Z,3.47
2023-03-15T15:51:25.765Z,4.43
2023-03-15T15:53:54.781Z,4.65
2023-03-15T15:56:30.861Z,3.95
2023-03-15T15:58:59.508Z,3.88
2023-03-15T16:01:27.489Z,2.97
2023-03-15T16:03:55.364Z,4.32
2023-03-15T16:06:23.678Z,3.67
2023-03-15T16:08:53.848Z,2.67
2023-03-15T16:11:22.739Z,3.28
2023-03-15T16:13:54.296Z,4.72
2023-03-15T16:16:22.506Z,2.78
2023-03-15T16:18:50.993Z,2.17
2023-03-15T16:21:27.771Z,2.95
2023-03-15T16:23:59.998Z,3.67
2023-03-15T16:26:28.935Z,3.03
2023-03-15T16:28:58.238Z,2.92
2023-03-15T16:31:26.163Z,2.47
2023-03-15T16:33:54.053Z,3.35
2023-03-15T16:36:23.313Z,3.10
2023-03-15T16:38:51.168Z,2.50
2023-03-15T16:41:19.134Z,2.78
2023-03-15T16:43:49.200Z,3.30
2023-03-15T16:46:18.814Z,1.67
2023-03-15T16:48:46.715Z,2.15
2023-03-15T16:51:17.005Z,2.97
2023-03-15T16:53:45.573Z,2.75
2023-03-15T16:56:14.930Z,4.20
2023-03-15T16:58:44.497Z,2.72
2023-03-15T17:01:12.685Z,2.28
2023-03-15T17:03:41.968Z,4.45
2023-03-15T17:06:17.492Z,2.70
2023-03-15T17:08:45.473Z,5.10
2023-03-15T17:11:13.938Z,2.83
2023-03-15T17:13:42.537Z,2.40
2023-03-15T17:16:13.138Z,2.65
2023-03-15T17:18:42.983Z,2.95
2023-03-15T17:21:14.707Z,4.72
2023-03-15T17:23:43.805Z,1.88
2023-03-15T17:26:13.447Z,2.13
2023-03-15T17:28:42.679Z,3.38
2023-03-15T17:31:24.589Z,2.95
2023-03-15T17:33:54.188Z,3.05
2023-03-15T17:36:24.502Z,3.83
2023-03-15T17:38:53.050Z,3.53
2023-03-15T17:41:23.192Z,1.98
2023-03-15T17:43:52.649Z,3.15
2023-03-15T17:46:22.267Z,4.60
2023-03-15T17:48:50.428Z,3.40
2023-03-15T17:51:23.200Z,3.95
2023-03-15T17:53:51.496Z,3.50
2023-03-15T17:56:19.852Z,4.45
2023-03-15T17:58:47.784Z,4.75
2023-03-15T18:01:19.513Z,4.30
2023-03-15T18:03:49.001Z,4.20
2023-03-15T18:06:19.867Z,3.65
2023-03-15T18:08:48.574Z,4.97
2023-03-15T18:11:19.575Z,4.32
2023-03-15T18:13:47.492Z,4.55
2023-03-15T18:16:15.544Z,4.57
2023-03-15T18:18:43.732Z,3.78
2023-03-15T18:21:14.373Z,3.42
2023-03-15T18:23:43.846Z,4.43
2023-03-15T18:26:12.700Z,4.45
2023-03-15T18:28:41.145Z,3.35
2023-03-15T18:31:13.406Z,2.53
2023-03-15T18:33:41.654Z,3.50
2023-03-15T18:36:09.991Z,4.70
2023-03-15T18:38:38.050Z,5.13
2023-03-15T18:41:12.837Z,4.00
2023-03-15T18:43:40.971Z,4.68
2023-03-15T18:46:09.862Z,5.15
2023-03-15T18:48:40.755Z,5.47
2023-03-15T18:51:12.178Z,3.83
2023-03-15T18:53:40.245Z,4.05
2023-03-15T18:56:16.632Z,4.28
2023-03-15T18:58:44.640Z,4.50
2023-03-15T19:01:12.518Z,3.50
2023-03-15T19:03:40.919Z,3.47
2023-03-15T19:06:11.524Z,3.92
2023-03-15T19:08:39.883Z,4.22
2023-03-15T19:11:10.672Z,3.60
2023-03-15T19:13:38.932Z,5.82
2023-03-15T19:16:07.831Z,4.18
2023-03-15T19:18:35.930Z,5.13
2023-03-15T19:21:03.818Z,4.65
2023-03-15T19:23:32.033Z,4.93
2023-03-15T19:26:00.032Z,5.28
2023-03-15T19:28:30.253Z,5.13
2023-03-15T19:30:58.501Z,5.47
2023-03-15T19:33:26.513Z,5.38
2023-03-15T19:35:54.334Z,6.18
2023-03-15T19:38:22.424Z,5.10
2023-03-15T19:40:55.068Z,5.75
2023-03-15T19:43:23.788Z,6.40
2023-03-15T19:45:53.396Z,6.10
2023-03-15T19:48:21.498Z,5.35
2023-03-15T19:50:49.508Z,7.75
2023-03-15T19:53:18.061Z,5.20
2023-03-15T19:55:46.076Z,6.35
2023-03-15T19:58:14.510Z,6.20
2023-03-15T20:00:42.343Z,6.93
2023-03-15T20:03:12.648Z,6.40
2023-03-15T20:05:40.539Z,9.02
2023-03-15T20:08:09.666Z,6.13
2023-03-15T20:10:37.527Z,6.95
2023-03-15T20:13:05.412Z,7.10
2023-03-15T20:15:33.236Z,8.25
2023-03-15T20:18:02.425Z,6.55
2023-03-15T20:20:31.733Z,6.93
2023-03-15T20:22:59.520Z,6.63
2023-03-15T20:25:28.149Z,6.35
2023-03-15T20:27:55.930Z,7.43
2023-03-15T20:30:24.303Z,5.88
2023-03-15T20:32:52.599Z,7.20
2023-03-15T20:35:20.616Z,6.93
2023-03-15T20:37:52.930Z,7.88
2023-03-15T20:40:21.952Z,8.02
2023-03-15T20:42:49.974Z,5.28
2023-03-15T20:45:18.286Z,7.47
2023-03-15T20:47:46.467Z,6.90
2023-03-15T20:50:14.445Z,6.63
2023-03-15T20:52:42.689Z,8.05
2023-03-15T20:55:15.201Z,6.22
2023-03-15T20:57:43.515Z,6.75
2023-03-15T21:00:17.972Z,6.88
2023-03-15T21:02:46.392Z,6.35
2023-03-15T21:05:14.939Z,5.47
2023-03-15T21:07:43.958Z,5.55
2023-03-15T21:10:14.725Z,6.60
2023-03-15T21:12:43.861Z,6.43
2023-03-15T21:15:15.409Z,6.55
2023-03-15T21:17:43.256Z,5.55
2023-03-15T21:20:14.900Z,8.40
2023-03-15T21:22:43.199Z,4.43
2023-03-15T21:25:11.265Z,6.07
2023-03-15T21:27:40.561Z,6.45
2023-03-15T21:30:09.858Z,5.22
2023-03-15T21:32:38.346Z,7.32
2023-03-15T21:35:07.127Z,5.22
2023-03-15T21:37:35.227Z,5.95
2023-03-15T21:40:03.327Z,4.95
2023-03-15T21:42:31.135Z,5.80
2023-03-15T21:45:00.483Z,5.40
2023-03-15T21:47:28.650Z,5.60
2023-03-15T21:49:56.421Z,6.18
2023-03-15T21:52:26.313Z,5.90
2023-03-15T21:54:54.242Z,7.00
2023-03-15T21:57:23.078Z,6.97
2023-03-15T21:59:51.128Z,5.82
2023-03-15T22:02:20.341Z,5.72
2023-03-15T22:04:48.168Z,7.70
2023-03-15T22:07:17.289Z,6.95
2023-03-15T22:09:45.258Z,6.50
2023-03-15T22:12:15.381Z,5.72
2023-03-15T22:14:44.661Z,6.22
2023-03-15T22:17:13.707Z,6.35
2023-03-15T22:19:42.900Z,6.55
2023-03-15T22:22:10.912Z,6.43
2023-03-15T22:24:38.718Z,6.75
2023-03-15T22:27:06.860Z,5.35
2023-03-15T22:29:34.961Z,5.78
2023-03-15T22:32:02.760Z,7.75
2023-03-15T22:34:34.089Z,4.30
2023-03-15T22:37:03.326Z,6.80
2023-03-15T22:39:32.251Z,5.63
2023-03-15T22:42:00.105Z,6.07
2023-03-15T22:44:30.096Z,6.35
2023-03-15T22:46:58.376Z,5.60
2023-03-15T22:49:26.110Z,6.18
2023-03-15T22:51:53.947Z,5.70
2023-03-15T22:54:23.145Z,6.15
2023-03-15T22:56:50.944Z,5.10
2023-03-15T22:59:18.786Z,6.28
2023-03-15T23:01:46.635Z,4.55
2023-03-15T23:04:14.468Z,5.43
2023-03-15T23:06:42.364Z,5.97
2023-03-15T23:09:10.143Z,6.13
2023-03-15T23:11:39.370Z,5.93
2023-03-15T23:14:07.139Z,5.35
2023-03-15T23:16:34.896Z,5.43
2023-03-15T23:19:04.939Z,5.28
2023-03-15T23:21:33.028Z,5.55
2023-03-15T23:24:00.889Z,7.35
2023-03-15T23:26:28.942Z,5.47
2023-03-15T23:28:58.069Z,4.50
2023-03-15T23:31:25.993Z,4.25
2023-03-15T23:33:53.747Z,5.50
2023-03-15T23:36:21.534Z,4.88
2023-03-15T23:38:49.328Z,4.82
2023-03-15T23:41:17.189Z,5.07
2023-03-15T23:43:44.969Z,5.90
2023-03-15T23:46:14.700Z,5.65
2023-03-15T23:48:42.674Z,4.57
2023-03-15T23:51:12.705Z,6.25
2023-03-15T23:53:40.524Z,5.22
2023-03-15T23:56:08.560Z,5.60
2023-03-15T23:58:36.336Z,5.47
